ADDS METAR Data INFO
IDs: Format: Raw Decoded Include TAF

Data at: 1811 UTC 18 Feb 2018

KMIE 181753Z 18011KT 10SM FEW015 03/M02 A3030 RMK AO2 SLP265 T00281017 10028 21017 58014
KMIE 181711Z 18010KT 10SM FEW015 02/M02 A3033 RMK AO2 T00221017
KMIE 181653Z 17011KT 10SM BKN014 02/M02 A3033 RMK AO2 SLP276 T00171022
KMIE 181553Z 15006KT 10SM OVC013 00/M03 A3034 RMK AO2 SLP279 T00001033
KMIE 181453Z 18006KT 10SM OVC012 M01/M04 A3034 RMK AO2 SLP281 T10111039 51009
KMIE 181353Z 17007KT 10SM OVC012 M01/M04 A3034 RMK AO2 SLP280 T10111039
KMIE 181253Z 18005KT 10SM OVC012 M02/M04 A3033 RMK AO2 SLP275 T10171044
KMIE 181153Z 25003KT 10SM OVC012 M02/M04 A3032 RMK AO2 SLP271 70007 T10171044 10006 21017 53018
KMIE 181053Z AUTO 32005KT 10SM OVC013 M01/M04 A3030 RMK AO2 SLP265 T10111044
KMIE 180953Z AUTO 34010KT 10SM OVC014 M01/M04 A3026 RMK AO2 SLP253 T10111044
KMIE 180853Z AUTO 30012KT 10SM OVC014 M01/M04 A3026 RMK AO2 SLP252 T10061039 53030
KMIE 180753Z AUTO 31013KT 10SM OVC016 00/M04 A3023 RMK AO2 SLP242 T00001039
KMIE 180653Z AUTO 27011KT 10SM OVC016 00/M03 A3020 RMK AO2 SLP231 T00001033
KMIE 180553Z AUTO 28013KT 10SM OVC019 01/M03 A3017 RMK AO2 SLP221 60001 T00061028 10022 20006 53036
KMIE 180453Z AUTO 29020G26KT 10SM SCT015 OVC021 01/M03 A3012 RMK AO2 PK WND 30026/0452 SLP206 T00111033 400221033
KMIE 180440Z AUTO 30016G26KT 10SM BKN015 OVC023 01/M03 A3012 RMK AO2 PK WND 31026/0433 T00111028
KMIE 180402Z AUTO 29013G20KT 10SM OVC013 02/M01 A3008 RMK AO2 T00171011
KMIE 180353Z AUTO 29010KT 10SM OVC015 02/M01 A3009 RMK AO2 PK WND 28028/0317 SLP194 T00171011
KMIE 180313Z AUTO 28014G24KT 10SM OVC017 02/M01 A3007 RMK AO2 PK WND 27026/0256 T00171011
KMIE 180253Z 28019G26KT 10SM BKN012 OVC018 02/M01 A3006 RMK AO2 PK WND 29026/0251 RAB22E23UPB23E32SNE09 SLP184 P0000 60001 T00171006 53017
KMIE 180246Z 27014G26KT 10SM SCT009 OVC015 02/00 A3005 RMK AO2 PK WND 26026/0239 RAB22E23UPB23E32SNE09 P0000 T00170000
KMIE 180153Z 26011KT 4SM -SN BR OVC007 02/00 A3002 RMK AO2 CIG 005V010 SLP172 P0000 T00170000
KMIE 180053Z 24009KT 3SM -SN BR OVC005 02/00 A3001 RMK AO2 SLP167 P0001 T00170000
KMIE 180051Z 26008KT 3SM -SN BR OVC005 02/00 A3001 RMK AO2 P0001
KMIE 180007Z 20007KT 2SM -SN BR OVC005 01/00 A3000 RMK AO2 P0000 T00110000
KMIE 172353Z 20007KT 2 1/2SM -SN BR BKN004 OVC018 01/00 A3000 RMK AO2 SLP164 P0002 60006 T00110000 10017 20011 53003
KMIE 172344Z 20006KT 2 1/2SM -SN BR OVC005 01/00 A2999 RMK AO2 P0002 T00110000
KMIE 172253Z 21006KT 1 1/2SM -SN BR BKN007 OVC014 02/00 A2999 RMK AO2 SLP163 P0003 T00170000
KMIE 172153Z 23005KT 1 3/4SM -SN BR OVC007 02/00 A2999 RMK AO2 SNB33 CIG 006V011 SLP161 P0001 T00170000
KMIE 172053Z 26005KT 8SM OVC008 02/00 A2998 RMK AO2 SNB07E18 SLP158 P0000 60000 T00170000 55021
KMIE 171953Z 22008KT 6SM BR OVC008 02/M01 A2997 RMK AO2 SLP153 T00171006
KMIE 171929Z 21006KT 10SM OVC009 02/M01 A2998 RMK AO2 T00171011
KMIE 171853Z 21007KT 10SM OVC011 02/M02 A3000 RMK AO2 SLP163 T00171017
KMIE 171832Z 19010KT 10SM OVC014 02/M02 A3000 RMK AO2 T00171017
KMIE 171802Z 20008KT 10SM BKN020 OVC090 02/M03 A3004 RMK AO2 T00171028
KMIE 171753Z 21007KT 10SM SCT022 OVC090 02/M03 A3005 RMK AO2 SLP180 T00171028 10017 21028 56021
KMIE 171653Z 18007KT 10SM OVC080 01/M03 A3007 RMK AO2 SLP187 T00111033
KMIE 171553Z 13008KT 10SM OVC080 00/M03 A3008 RMK AO2 PRESFR SLP191 T00001033
KMIE 171453Z 14005KT 10SM OVC110 M01/M04 A3011 RMK AO2 SLP201 T10061044 58024
KMIE 171353Z 17004KT 10SM CLR M01/M05 A3016 RMK AO2 SLP217 T10111050
KMIE 171253Z 13003KT 10SM CLR M02/M06 A3018 RMK AO2 SLP225 T10171056
KMIE 171153Z 15004KT 10SM CLR M03/M06 A3018 RMK AO2 SLP228 T10281061 11017 21033 56015
KMIE 171053Z AUTO 17003KT 10SM CLR M03/M06 A3020 RMK AO2 SLP231 T10281061
KMIE 170953Z AUTO 15004KT 10SM CLR M03/M07 A3021 RMK AO2 SLP234 T10281067
KMIE 170853Z AUTO 16004KT 10SM CLR M02/M06 A3023 RMK AO2 SLP242 T10171061 58009
KMIE 170753Z AUTO 18003KT 10SM FEW029 M02/M06 A3024 RMK AO2 SLP246 T10221061
KMIE 170653Z AUTO 17003KT 10SM CLR M02/M06 A3025 RMK AO2 SLP250 T10171061